Time;durP1;ratioP1;P1;durP2;ratioP2;P2;SDS_P1;SDS_P2;PMS_P1;PMS_P2;Temp;Humidity;BMP_temperature;BMP_pressure;BME280_temperature;BME280_humidity;BME280_pressure;Samples;Min_cycle;Max_cycle;Signal;HPM_P1;HPM_P2
2022/06/22 00:01:18;;;;;;;20.67;3.40;;;29.70;35.80;;;;;;6184240;28;20085;-75
2022/06/22 00:04:33;;;;;;;23.80;3.38;;;29.60;36.00;;;;;;6184547;28;20360;-74
2022/06/22 00:07:38;;;;;;;27.15;3.92;;;29.60;36.20;;;;;;6184494;28;20030;-74
2022/06/22 00:10:57;;;;;;;14.20;2.78;;;29.50;36.20;;;;;;6201638;28;20026;-74
2022/06/22 00:14:02;;;;;;;17.13;3.13;;;29.50;36.40;;;;;;6199405;28;20030;-75
2022/06/22 00:17:04;;;;;;;21.75;3.08;;;29.50;36.40;;;;;;6200898;28;20041;-75
2022/06/22 00:20:08;;;;;;;30.08;3.85;;;29.40;36.30;;;;;;6184025;28;20034;-76
2022/06/22 00:23:12;;;;;;;29.05;2.97;;;29.40;36.40;;;;;;6181007;28;20459;-74
2022/06/22 00:26:22;;;;;;;22.20;3.45;;;29.50;36.50;;;;;;6168104;28;20113;-77
2022/06/22 00:29:33;;;;;;;20.75;3.60;;;29.50;36.60;;;;;;6183742;28;20118;-76
2022/06/22 00:32:35;;;;;;;19.15;3.33;;;29.50;36.70;;;;;;6200812;28;20482;-74
2022/06/22 00:35:51;;;;;;;16.50;2.83;;;29.40;36.70;;;;;;6183641;28;20197;-74
2022/06/22 00:38:52;;;;;;;20.17;3.05;;;29.40;36.70;;;;;;6201342;28;20038;-74
2022/06/22 00:42:00;;;;;;;17.77;3.17;;;29.40;36.70;;;;;;6200719;28;20367;-74
2022/06/22 00:45:28;;;;;;;22.67;3.65;;;29.40;36.70;;;;;;6183933;28;20042;-75
2022/06/22 00:48:31;;;;;;;16.80;3.15;;;29.40;36.80;;;;;;6196374;28;20080;-75
2022/06/22 00:51:37;;;;;;;18.33;2.92;;;29.50;37.00;;;;;;6183315;28;20481;-74
2022/06/22 00:54:39;;;;;;;24.80;3.78;;;29.50;37.80;;;;;;6183917;28;20456;-74
2022/06/22 00:57:41;;;;;;;21.52;3.30;;;29.50;38.20;;;;;;6200837;28;20085;-74
2022/06/22 01:00:52;;;;;;;21.67;3.65;;;29.30;38.70;;;;;;6200524;28;20403;-74
2022/06/22 01:04:11;;;;;;;13.88;3.20;;;29.30;39.40;;;;;;6200063;28;20030;-75
2022/06/22 01:07:22;;;;;;;26.58;3.88;;;29.10;40.10;;;;;;6199774;28;20408;-75
2022/06/22 01:10:29;;;;;;;20.48;3.90;;;29.00;40.60;;;;;;6179764;28;20456;-75
2022/06/22 01:13:44;;;;;;;28.80;3.67;;;29.00;41.30;;;;;;6182872;28;20042;-75
2022/06/22 01:16:50;;;;;;;24.17;3.78;;;28.80;42.10;;;;;;6162410;28;20037;-74
2022/06/22 01:20:04;;;;;;;18.58;3.75;;;28.70;42.70;;;;;;6199138;28;20458;-75
2022/06/22 01:23:36;;;;;;;32.83;4.00;;;28.60;43.30;;;;;;6151642;28;20030;-75
2022/06/22 01:27:05;;;;;;;25.63;3.70;;;28.50;43.90;;;;;;6198357;28;20034;-75
2022/06/22 01:30:31;;;;;;;27.75;4.07;;;28.60;44.00;;;;;;6200445;28;20077;-76
2022/06/22 01:33:36;;;;;;;28.25;4.20;;;28.70;44.20;;;;;;6182942;28;20092;-75
2022/06/22 01:36:40;;;;;;;26.02;4.32;;;28.80;44.10;;;;;;6199586;28;20113;-77
2022/06/22 01:39:41;;;;;;;20.88;3.55;;;28.80;44.20;;;;;;6183269;28;20058;-75
2022/06/22 01:42:55;;;;;;;28.13;3.40;;;28.80;44.50;;;;;;6163639;28;20035;-74
2022/06/22 01:46:07;;;;;;;17.00;3.58;;;28.70;45.00;;;;;;6182657;28;20065;-74
2022/06/22 01:49:19;;;;;;;17.70;3.33;;;28.50;46.10;;;;;;6181722;28;20038;-74
2022/06/22 01:52:43;;;;;;;15.07;3.08;;;28.40;46.80;;;;;;6182866;28;20045;-75
2022/06/22 01:56:10;;;;;;;22.10;3.13;;;28.20;47.00;;;;;;6199764;28;20511;-75
2022/06/22 01:59:54;;;;;;;20.90;3.40;;;28.10;47.20;;;;;;6193897;28;20036;-74
2022/06/22 02:02:58;;;;;;;21.85;3.40;;;28.00;48.20;;;;;;6198719;28;20042;-77
2022/06/22 02:09:50;;;;;;;25.40;3.15;;;27.60;48.70;;;;;;6197724;28;20034;-74
2022/06/22 02:13:01;;;;;;;21.58;3.45;;;27.50;48.90;;;;;;6166513;28;20026;-75
2022/06/22 02:16:26;;;;;;;21.70;3.83;;;27.50;49.50;;;;;;6182988;28;20026;-74
2022/06/22 02:19:29;;;;;;;23.63;3.75;;;27.60;49.60;;;;;;6199261;28;20030;-75
2022/06/22 02:22:30;;;;;;;29.88;4.80;;;27.70;49.60;;;;;;6199713;28;20138;-74
2022/06/22 02:25:35;;;;;;;27.02;3.75;;;27.90;49.70;;;;;;6199775;28;20031;-75
2022/06/22 02:28:36;;;;;;;24.80;3.67;;;28.00;49.60;;;;;;6182153;28;20034;-76
2022/06/22 02:31:38;;;;;;;24.77;3.55;;;28.00;49.60;;;;;;6204147;28;20026;-75
2022/06/22 02:34:41;;;;;;;25.35;3.72;;;28.00;49.70;;;;;;6186653;28;20447;-75
2022/06/22 02:37:55;;;;;;;25.73;3.85;;;27.90;49.60;;;;;;6186951;28;20038;-75
2022/06/22 02:44:40;;;;;;;23.80;3.33;;;27.70;50.10;;;;;;6198837;28;20431;-76
2022/06/22 02:47:48;;;;;;;28.83;3.42;;;27.60;50.10;;;;;;6186523;28;20110;-75
2022/06/22 02:50:58;;;;;;;;;;;27.70;50.40;;;;;;6183877;28;20106;-76
2022/06/22 02:54:04;;;;;;;21.05;3.53;;;27.60;50.50;;;;;;6180686;28;19961;-75
2022/06/22 02:57:32;;;;;;;26.90;3.17;;;27.60;50.40;;;;;;6203811;28;20042;-75
2022/06/22 03:00:38;;;;;;;19.80;3.05;;;27.50;50.40;;;;;;6202221;28;20113;-75
2022/06/22 03:03:49;;;;;;;26.00;3.47;;;27.40;50.60;;;;;;6186541;28;20054;-76
2022/06/22 03:06:53;;;;;;;16.98;2.92;;;27.40;51.00;;;;;;6203663;28;20034;-75
2022/06/22 03:09:54;;;;;;;22.13;3.70;;;27.30;51.20;;;;;;6170279;28;20455;-74
2022/06/22 03:12:57;;;;;;;17.30;3.88;;;27.20;51.30;;;;;;6186026;28;20030;-75
2022/06/22 03:15:59;;;;;;;24.65;3.70;;;27.10;51.30;;;;;;6186118;28;20348;-74
2022/06/22 03:19:06;;;;;;;19.05;3.00;;;27.10;51.60;;;;;;6203158;28;20100;-74
2022/06/22 03:22:28;;;;;;;16.85;3.25;;;27.00;51.90;;;;;;6186027;28;20168;-75
2022/06/22 03:25:56;;;;;;;21.58;3.60;;;27.00;52.30;;;;;;6202064;28;20034;-74
2022/06/22 03:29:19;;;;;;;23.10;3.40;;;27.00;52.60;;;;;;6065840;29;20189;-75
2022/06/22 03:32:27;;;;;;;19.08;4.07;;;26.90;52.80;;;;;;6081153;29;20040;-75
2022/06/22 03:35:51;;;;;;;18.27;3.42;;;26.90;52.70;;;;;;6078563;29;20041;-75
2022/06/22 03:38:59;;;;;;;18.10;3.88;;;26.90;52.70;;;;;;6077204;29;20092;-74
2022/06/22 03:42:13;;;;;;;20.38;3.92;;;26.90;52.50;;;;;;6060613;29;20474;-74
2022/06/22 03:45:21;;;;;;;38.15;3.83;;;26.90;52.40;;;;;;6062661;29;20374;-75
2022/06/22 03:48:29;;;;;;;;;;;26.90;52.10;;;;;;6059268;29;20047;-75
2022/06/22 03:51:41;;;;;;;29.33;4.03;;;27.00;52.00;;;;;;6069752;29;19911;-76
2022/06/22 03:54:51;;;;;;;15.63;3.33;;;27.10;52.00;;;;;;6065653;29;20036;-75
2022/06/22 03:57:54;;;;;;;18.15;3.05;;;27.10;52.00;;;;;;6075692;29;20044;-75
2022/06/22 04:00:55;;;;;;;19.90;2.88;;;27.10;52.30;;;;;;6065184;29;20037;-75
2022/06/22 04:03:57;;;;;;;26.10;3.70;;;27.00;52.20;;;;;;6061472;28;20176;-75
2022/06/22 04:06:59;;;;;;;23.05;3.45;;;26.80;52.20;;;;;;6182542;28;20045;-75
2022/06/22 04:10:00;;;;;;;23.38;3.88;;;26.80;52.70;;;;;;6184960;28;20041;-75
2022/06/22 04:13:05;;;;;;;29.38;3.90;;;26.80;53.10;;;;;;6184939;28;20077;-75
2022/06/22 04:16:15;;;;;;;17.23;3.70;;;27.00;53.00;;;;;;6183132;28;20596;-75
2022/06/22 04:19:30;;;;;;;23.00;3.58;;;27.10;52.80;;;;;;6181508;28;20041;-75
2022/06/22 04:22:38;;;;;;;18.00;4.35;;;27.00;52.50;;;;;;6197798;28;20371;-75
2022/06/22 04:25:40;;;;;;;26.05;3.30;;;26.90;52.90;;;;;;6195800;28;20031;-75
2022/06/22 04:28:46;;;;;;;25.38;3.55;;;26.60;53.30;;;;;;6183654;28;20030;-75
2022/06/22 04:31:56;;;;;;;21.27;3.80;;;26.50;54.10;;;;;;6182322;28;20053;-75
2022/06/22 04:35:01;;;;;;;19.10;3.53;;;26.20;54.20;;;;;;6199329;28;20117;-74
2022/06/22 04:38:02;;;;;;;22.55;3.67;;;26.00;55.00;;;;;;6167027;28;20081;-75
2022/06/22 04:41:27;;;;;;;25.13;3.97;;;25.90;55.70;;;;;;6184146;28;20368;-75
2022/06/22 04:44:33;;;;;;;29.42;3.67;;;25.80;56.50;;;;;;6177764;28;20040;-75
2022/06/22 04:47:35;;;;;;;25.55;3.90;;;25.70;56.70;;;;;;6199968;28;20037;-76
2022/06/22 04:50:38;;;;;;;17.27;3.15;;;25.70;56.80;;;;;;6194356;28;20042;-76
2022/06/22 04:53:44;;;;;;;24.00;3.45;;;25.60;57.20;;;;;;6193048;28;20096;-77
2022/06/22 04:56:48;;;;;;;24.88;3.88;;;25.60;57.40;;;;;;6196408;28;20368;-77
2022/06/22 04:59:51;;;;;;;30.20;3.63;;;25.40;57.30;;;;;;6154811;28;20066;-75
2022/06/22 05:03:14;;;;;;;20.38;3.40;;;25.30;57.60;;;;;;6167093;28;20041;-75
2022/06/22 05:06:21;;;;;;;21.80;4.00;;;25.20;57.90;;;;;;6172537;28;20750;-76
2022/06/22 05:09:47;;;;;;;25.20;3.60;;;25.10;58.00;;;;;;6199090;28;20481;-76
2022/06/22 05:13:01;;;;;;;23.13;4.10;;;25.00;58.80;;;;;;6195452;28;20639;-76
2022/06/22 05:16:04;;;;;;;29.05;4.47;;;24.90;59.30;;;;;;6180233;28;20125;-75
2022/06/22 05:19:12;;;;;;;21.38;4.20;;;24.80;59.50;;;;;;6199525;28;20041;-75
2022/06/22 05:22:14;;;;;;;25.40;4.20;;;24.70;60.00;;;;;;6193998;28;20050;-75
2022/06/22 05:25:17;;;;;;;23.10;4.07;;;24.70;60.50;;;;;;6178697;28;20133;-76
2022/06/22 05:28:41;;;;;;;18.13;4.25;;;24.60;61.00;;;;;;6191671;28;20142;-76
2022/06/22 05:31:59;;;;;;;30.73;4.20;;;24.60;61.50;;;;;;6180035;28;20037;-75
2022/06/22 05:35:08;;;;;;;20.08;4.03;;;24.50;61.70;;;;;;6191626;28;20146;-75
2022/06/22 05:38:10;;;;;;;21.83;3.70;;;24.50;61.80;;;;;;6192691;28;20038;-76
2022/06/22 05:41:15;;;;;;;24.45;5.18;;;24.50;61.70;;;;;;6168262;28;20090;-74
2022/06/22 05:44:18;;;;;;;25.25;4.55;;;24.50;62.10;;;;;;6193581;28;20049;-75
2022/06/22 05:47:30;;;;;;;17.98;3.55;;;24.50;62.20;;;;;;6189243;28;20030;-76
2022/06/22 05:50:36;;;;;;;16.25;3.67;;;24.50;62.40;;;;;;6180181;28;20061;-75
2022/06/22 05:53:52;;;;;;;22.73;4.95;;;24.50;62.70;;;;;;6199641;28;20026;-75
2022/06/22 05:57:08;;;;;;;23.67;4.18;;;24.50;63.10;;;;;;6182360;28;20168;-75
2022/06/22 06:00:20;;;;;;;24.50;5.22;;;24.50;63.80;;;;;;6199656;28;20034;-75
2022/06/22 06:03:46;;;;;;;23.38;4.95;;;24.50;64.30;;;;;;6201009;28;20022;-74
2022/06/22 06:06:48;;;;;;;32.22;4.70;;;24.50;64.90;;;;;;6186595;28;20049;-74
2022/06/22 06:09:49;;;;;;;29.95;4.40;;;24.60;64.90;;;;;;6204509;28;20097;-74
2022/06/22 06:13:16;;;;;;;21.15;4.15;;;24.60;64.70;;;;;;6204511;28;20080;-75
2022/06/22 06:16:40;;;;;;;22.02;4.70;;;24.60;64.70;;;;;;6203513;28;20026;-75
2022/06/22 06:19:45;;;;;;;27.83;4.38;;;24.60;64.60;;;;;;6166368;28;20053;-74
2022/06/22 06:22:48;;;;;;;21.35;4.28;;;24.70;64.80;;;;;;6168244;28;20053;-76
2022/06/22 06:29:30;;;;;;;29.63;4.57;;;24.80;64.50;;;;;;6204261;28;20041;-75
2022/06/22 06:32:37;;;;;;;25.13;4.90;;;24.90;63.90;;;;;;6186218;28;20087;-75
2022/06/22 06:35:51;;;;;;;19.77;3.92;;;25.00;63.50;;;;;;6186631;28;20510;-75
2022/06/22 06:39:03;;;;;;;25.40;4.38;;;25.00;63.10;;;;;;6186421;28;20038;-75
2022/06/22 06:42:27;;;;;;;29.27;4.60;;;25.20;62.40;;;;;;6170385;28;20078;-76
2022/06/22 06:45:28;;;;;;;20.52;4.38;;;25.20;62.10;;;;;;6185799;28;20038;-76
2022/06/22 06:48:33;;;;;;;27.10;4.85;;;25.20;61.80;;;;;;6202891;28;20184;-75
2022/06/22 06:51:35;;;;;;;28.25;4.93;;;25.20;62.30;;;;;;6169934;28;20053;-75
2022/06/22 06:55:09;;;;;;;25.63;5.57;;;25.20;62.30;;;;;;6169013;28;20053;-76
2022/06/22 06:58:23;;;;;;;19.73;3.92;;;25.20;62.60;;;;;;6202034;28;20034;-75
2022/06/22 07:01:33;;;;;;;22.05;4.45;;;25.20;62.60;;;;;;6169910;28;20039;-75
2022/06/22 07:04:35;;;;;;;23.95;4.82;;;25.30;62.30;;;;;;6198671;28;20068;-74
2022/06/22 07:07:50;;;;;;;17.23;4.22;;;25.40;62.00;;;;;;6185777;28;20030;-75
2022/06/22 07:11:00;;;;;;;23.42;4.30;;;25.40;62.20;;;;;;6199861;28;20042;-74
2022/06/22 07:14:18;;;;;;;32.85;6.22;;;25.40;62.20;;;;;;6201601;28;20026;-74
2022/06/22 07:17:21;;;;;;;25.75;4.53;;;25.50;62.10;;;;;;6169582;28;20033;-74
2022/06/22 07:20:30;;;;;;;20.50;4.50;;;25.60;62.10;;;;;;6185917;28;20034;-74
2022/06/22 07:24:01;;;;;;;18.52;4.72;;;25.60;61.80;;;;;;6185715;28;20038;-75
2022/06/22 07:27:26;;;;;;;27.38;5.63;;;25.50;61.90;;;;;;6088964;29;20048;-75
2022/06/22 07:30:54;;;;;;;20.30;4.80;;;25.60;62.20;;;;;;6102113;29;20044;-75
2022/06/22 07:34:09;;;;;;;13.95;4.10;;;25.60;62.30;;;;;;6098776;29;20045;-74
2022/06/22 07:37:33;;;;;;;31.80;5.15;;;25.60;62.10;;;;;;6098335;29;20044;-74
2022/06/22 07:40:37;;;;;;;20.90;4.38;;;25.70;62.10;;;;;;6089019;29;20060;-76
2022/06/22 07:43:39;;;;;;;29.88;5.00;;;25.70;61.50;;;;;;6072384;29;20046;-74
2022/06/22 07:47:05;;;;;;;29.52;4.35;;;25.80;61.00;;;;;;6067337;29;20041;-74
2022/06/22 07:50:23;;;;;;;22.92;4.22;;;25.90;60.60;;;;;;6096338;29;20055;-75
2022/06/22 07:54:11;;;;;;;31.77;4.57;;;26.00;60.20;;;;;;6107811;29;20039;-76
2022/06/22 07:57:37;;;;;;;22.75;4.07;;;26.00;59.90;;;;;;6034562;29;20483;-76
2022/06/22 08:00:41;;;;;;;22.67;3.92;;;26.00;59.80;;;;;;6004526;29;20120;-76
2022/06/22 08:03:53;;;;;;;29.80;5.63;;;26.10;59.90;;;;;;6044607;29;20049;-75
2022/06/22 08:07:03;;;;;;;27.13;4.40;;;26.10;59.70;;;;;;6080836;29;20037;-73
2022/06/22 08:10:28;;;;;;;24.70;4.18;;;26.20;59.40;;;;;;6080719;29;20044;-73
2022/06/22 08:13:37;;;;;;;24.20;4.85;;;26.30;59.10;;;;;;6080028;29;20032;-73
2022/06/22 08:16:48;;;;;;;30.30;4.28;;;26.40;59.40;;;;;;6061810;29;20044;-73
2022/06/22 08:19:49;;;;;;;34.20;5.07;;;26.50;58.60;;;;;;6075372;29;20033;-74
2022/06/22 08:22:51;;;;;;;21.55;4.65;;;26.50;58.40;;;;;;6079577;29;20928;-73
2022/06/22 08:25:53;;;;;;;22.17;5.90;;;26.60;58.40;;;;;;6080006;29;20056;-73
2022/06/22 08:28:54;;;;;;;20.20;4.95;;;26.50;58.60;;;;;;6079173;29;20479;-73
2022/06/22 08:32:06;;;;;;;22.42;5.13;;;26.60;58.80;;;;;;6166293;28;20043;-73
2022/06/22 08:35:21;;;;;;;22.10;4.10;;;26.60;58.60;;;;;;6175667;28;20050;-73
2022/06/22 08:38:26;;;;;;;25.42;5.07;;;26.70;58.50;;;;;;6175410;28;20045;-74
2022/06/22 08:41:27;;;;;;;21.95;3.97;;;26.80;57.90;;;;;;6176176;28;20035;-74
2022/06/22 08:45:06;;;;;;;15.77;4.03;;;27.10;57.70;;;;;;6158673;28;20475;-73
2022/06/22 08:48:37;;;;;;;16.40;4.55;;;27.20;57.40;;;;;;6175232;28;20030;-74
2022/06/22 08:51:48;;;;;;;28.48;5.97;;;27.50;57.10;;;;;;6086549;29;20044;-73
2022/06/22 08:54:58;;;;;;;19.65;3.22;;;27.70;56.40;;;;;;6087062;29;20036;-73
2022/06/22 08:58:18;;;;;;;16.77;4.60;;;27.80;55.80;;;;;;6076470;29;20028;-74
2022/06/22 09:01:40;;;;;;;21.73;5.53;;;27.90;55.60;;;;;;6101486;29;20142;-73
2022/06/22 09:04:51;;;;;;;21.13;5.72;;;28.00;55.10;;;;;;6102262;29;20063;-76
2022/06/22 09:08:23;;;;;;;34.53;7.95;;;28.10;54.70;;;;;;6101645;29;20056;-75
2022/06/22 09:11:43;;;;;;;23.02;4.70;;;28.30;54.30;;;;;;6101717;29;20140;-74
2022/06/22 09:15:08;;;;;;;22.08;4.32;;;28.40;54.00;;;;;;6086485;29;20048;-74
2022/06/22 09:18:31;;;;;;;20.35;4.30;;;28.50;53.80;;;;;;6086504;29;20063;-73
2022/06/22 09:21:58;;;;;;;30.33;4.55;;;28.70;53.60;;;;;;6086229;29;20462;-73
2022/06/22 09:25:15;;;;;;;25.63;6.35;;;28.70;53.60;;;;;;6101388;29;20032;-74
2022/06/22 09:28:45;;;;;;;23.75;4.32;;;28.80;53.70;;;;;;6127763;28;20090;-73
2022/06/22 09:32:01;;;;;;;29.20;6.68;;;28.80;53.70;;;;;;6158153;28;20360;-73
2022/06/22 09:35:25;;;;;;;30.05;5.18;;;28.90;54.20;;;;;;6174633;28;20062;-73
2022/06/22 09:38:44;;;;;;;25.90;5.28;;;29.00;53.20;;;;;;6077818;29;20063;-74
2022/06/22 09:42:04;;;;;;;28.05;7.03;;;29.10;52.70;;;;;;6078022;29;20470;-74
2022/06/22 09:45:22;;;;;;;25.92;6.90;;;29.30;52.10;;;;;;6078150;29;20332;-73
2022/06/22 09:48:35;;;;;;;19.48;4.35;;;29.30;52.10;;;;;;6078105;29;20489;-73
2022/06/22 09:51:48;;;;;;;30.10;7.53;;;29.40;51.70;;;;;;6062355;29;20053;-74
2022/06/22 09:59:00;;;;;;;25.42;7.35;;;29.50;50.80;;;;;;6062458;29;20123;-73
2022/06/22 10:02:16;;;;;;;23.50;8.40;;;29.70;50.50;;;;;;6077844;29;20056;-74
2022/06/22 10:05:33;;;;;;;23.63;5.35;;;29.80;50.10;;;;;;6059041;29;20479;-75
2022/06/22 10:08:58;;;;;;;29.33;7.50;;;29.80;49.50;;;;;;6062532;29;20051;-74
2022/06/22 10:12:15;;;;;;;28.17;6.15;;;29.90;49.10;;;;;;6057103;29;20040;-73
2022/06/22 10:15:38;;;;;;;29.15;4.80;;;30.00;48.80;;;;;;6116019;28;20345;-72
2022/06/22 10:18:52;;;;;;;26.95;6.00;;;30.20;48.20;;;;;;6172409;28;20035;-75
2022/06/22 10:22:13;;;;;;;32.33;7.55;;;30.30;47.90;;;;;;6160491;28;20034;-74
2022/06/22 10:25:20;;;;;;;30.85;6.93;;;30.40;47.70;;;;;;6160330;28;20090;-76
2022/06/22 10:28:53;;;;;;;16.30;4.50;;;30.60;47.50;;;;;;6162990;28;20046;-76
2022/06/22 10:32:12;;;;;;;20.83;5.43;;;30.60;47.50;;;;;;6148759;28;20031;-77
2022/06/22 10:35:19;;;;;;;16.13;5.30;;;30.70;47.20;;;;;;6165446;28;20043;-77
2022/06/22 10:38:55;;;;;;;42.38;7.35;;;30.90;46.60;;;;;;6172396;28;20031;-72
2022/06/22 10:46:00;;;;;;;21.23;4.55;;;31.10;46.10;;;;;;6169254;28;20035;-75
2022/06/22 10:49:15;;;;;;;22.05;3.60;;;31.10;46.20;;;;;;6169155;28;20045;-74
2022/06/22 10:52:38;;;;;;;29.13;5.57;;;31.30;45.80;;;;;;6170791;28;20952;-72
2022/06/22 10:56:09;;;;;;;24.33;4.53;;;31.50;45.30;;;;;;6175428;28;20081;-72
2022/06/22 10:59:46;;;;;;;17.52;4.35;;;31.60;45.10;;;;;;6173221;28;20480;-73
2022/06/22 11:03:15;;;;;;;24.90;5.15;;;31.70;44.80;;;;;;6172794;28;20365;-73
2022/06/22 11:06:38;;;;;;;13.02;3.58;;;31.80;44.40;;;;;;6161382;28;20047;-73
2022/06/22 11:09:51;;;;;;;17.23;4.93;;;32.30;43.60;;;;;;6169675;28;20538;-73
2022/06/22 11:13:11;;;;;;;23.42;4.53;;;33.20;42.00;;;;;;6141546;28;20085;-73
2022/06/22 11:16:37;;;;;;;24.35;3.47;;;34.40;40.20;;;;;;6168239;28;20035;-72
2022/06/22 11:20:00;;;;;;;18.23;3.22;;;35.10;38.80;;;;;;6172727;28;20042;-72
2022/06/22 11:23:11;;;;;;;13.75;3.28;;;35.90;37.40;;;;;;6168311;28;20624;-72
2022/06/22 11:34:24;;;;;;;20.75;3.72;;;37.00;35.40;;;;;;6172449;28;20030;-71
2022/06/22 11:37:45;;;;;;;;;;;37.60;34.50;;;;;;6054125;29;20351;-72
2022/06/22 11:41:29;;;;;;;19.00;3.33;;;37.60;34.30;;;;;;6070718;29;20213;-72
2022/06/22 11:44:41;;;;;;;18.77;3.45;;;36.90;34.90;;;;;;6077059;29;20048;-71
2022/06/22 11:48:06;;;;;;;15.85;3.13;;;36.10;35.10;;;;;;6076723;29;20584;-72
2022/06/22 11:51:18;;;;;;;25.92;3.75;;;35.50;36.30;;;;;;6078868;29;20041;-72
2022/06/22 11:54:40;;;;;;;22.17;3.28;;;35.00;36.70;;;;;;6077514;29;20111;-73
2022/06/22 11:58:15;;;;;;;18.27;3.58;;;34.60;37.20;;;;;;6062117;29;20033;-72
2022/06/22 12:01:16;;;;;;;18.92;3.47;;;34.30;37.40;;;;;;6064919;29;20129;-72
2022/06/22 12:04:44;;;;;;;19.50;4.07;;;34.10;37.60;;;;;;6077375;29;20041;-73
2022/06/22 12:08:18;;;;;;;26.88;3.42;;;33.90;37.70;;;;;;6077143;29;20092;-70
2022/06/22 12:11:28;;;;;;;27.33;4.05;;;33.70;38.10;;;;;;6133027;28;20452;-71
2022/06/22 12:15:09;;;;;;;23.52;3.42;;;33.50;38.40;;;;;;6171693;28;20039;-72
2022/06/22 12:18:36;;;;;;;24.80;3.47;;;33.20;38.90;;;;;;6173290;28;20030;-71
2022/06/22 12:22:01;;;;;;;19.15;3.78;;;32.90;39.30;;;;;;6170793;28;20042;-72
2022/06/22 12:25:22;;;;;;;26.30;3.80;;;32.60;40.30;;;;;;6172032;28;20162;-72
2022/06/22 12:28:36;;;;;;;24.77;3.80;;;31.70;43.20;;;;;;6157279;28;20050;-72
2022/06/22 12:31:47;;;;;;;27.77;3.78;;;31.30;45.60;;;;;;6171642;28;20081;-72
2022/06/22 12:35:04;;;;;;;17.27;2.97;;;31.20;45.40;;;;;;6174643;28;20100;-74
2022/06/22 12:38:12;;;;;;;22.08;3.30;;;31.10;45.50;;;;;;6194100;28;20034;-74
2022/06/22 12:41:29;;;;;;;16.67;3.55;;;30.90;45.30;;;;;;6179900;28;20038;-74
2022/06/22 12:44:48;;;;;;;31.25;4.20;;;31.20;45.10;;;;;;6196278;28;20033;-73
2022/06/22 12:48:32;;;;;;;14.43;2.72;;;32.20;43.60;;;;;;6179756;28;20022;-73
2022/06/22 12:51:57;;;;;;;27.77;3.60;;;33.20;41.70;;;;;;6093632;29;20549;-72
2022/06/22 12:55:07;;;;;;;19.83;3.85;;;33.70;40.40;;;;;;6108902;29;20399;-73
2022/06/22 12:58:21;;;;;;;22.77;3.33;;;34.20;39.20;;;;;;6077821;29;20095;-72
2022/06/22 13:01:23;;;;;;;17.27;3.17;;;34.50;38.00;;;;;;6094732;29;20164;-73
2022/06/22 13:04:29;;;;;;;23.10;3.55;;;34.80;37.70;;;;;;6112215;29;20056;-74
2022/06/22 13:07:36;;;;;;;30.27;3.33;;;35.20;37.00;;;;;;6109881;29;20086;-73
2022/06/22 13:10:44;;;;;;;21.50;3.03;;;35.30;36.50;;;;;;6091327;29;20027;-72
2022/06/22 13:13:49;;;;;;;;;;;35.40;36.40;;;;;;6108952;29;20450;-73
2022/06/22 13:17:23;;;;;;;25.27;3.63;;;35.90;35.80;;;;;;6109073;29;19937;-72
2022/06/22 13:20:29;;;;;;;23.92;5.85;;;36.50;35.20;;;;;;6096677;29;20119;-73
2022/06/22 13:24:06;;;;;;;27.42;3.58;;;36.30;35.60;;;;;;6210724;28;20393;-73
2022/06/22 13:27:28;;;;;;;11.27;2.58;;;35.90;36.30;;;;;;6199843;28;20030;-72
2022/06/22 13:30:40;;;;;;;32.50;3.78;;;35.40;36.80;;;;;;6201880;28;20029;-72
2022/06/22 13:33:46;;;;;;;19.83;3.15;;;35.00;37.30;;;;;;6179818;28;20079;-73
2022/06/22 13:37:02;;;;;;;22.20;3.67;;;34.60;37.60;;;;;;6168010;28;20030;-72
2022/06/22 13:40:06;;;;;;;19.15;3.30;;;34.20;37.90;;;;;;6178519;28;20077;-72
2022/06/22 13:43:20;;;;;;;28.15;3.15;;;34.00;38.30;;;;;;6160311;28;20026;-69
2022/06/22 13:46:34;;;;;;;28.60;4.63;;;33.90;38.00;;;;;;6177037;28;20035;-72
2022/06/22 13:49:41;;;;;;;22.95;3.40;;;33.80;37.90;;;;;;6171426;28;20030;-74
2022/06/22 13:52:55;;;;;;;16.80;2.42;;;33.60;37.40;;;;;;6167818;28;20034;-76
2022/06/22 13:56:48;;;;;;;21.92;3.30;;;33.40;37.20;;;;;;6173049;28;20034;-73
2022/06/22 14:00:14;;;;;;;29.88;2.75;;;33.10;37.50;;;;;;6102387;29;20036;-72
2022/06/22 14:03:38;;;;;;;21.88;2.58;;;32.80;37.70;;;;;;6138584;28;20453;-73
2022/06/22 14:06:49;;;;;;;26.88;3.35;;;32.70;37.60;;;;;;6117003;28;20512;-73
2022/06/22 14:09:59;;;;;;;20.00;3.80;;;32.60;37.60;;;;;;6130074;28;20449;-74
2022/06/22 14:13:22;;;;;;;20.98;3.60;;;32.70;37.90;;;;;;6135992;28;20445;-70
2022/06/22 14:16:36;;;;;;;23.33;3.50;;;32.60;40.50;;;;;;6132836;29;20563;-73
2022/06/22 14:19:56;;;;;;;28.65;4.32;;;32.40;41.60;;;;;;6107113;29;20032;-73
2022/06/22 14:23:06;;;;;;;27.00;3.35;;;32.40;41.40;;;;;;6121291;29;20107;-72
2022/06/22 14:26:39;;;;;;;16.20;3.58;;;32.30;41.80;;;;;;6104786;29;20565;-71
2022/06/22 14:29:52;;;;;;;23.73;3.00;;;32.10;41.00;;;;;;6011892;29;20030;-75
2022/06/22 14:33:04;;;;;;;15.10;2.60;;;32.10;41.00;;;;;;6024089;29;20118;-71
2022/06/22 14:36:19;;;;;;;17.15;2.55;;;33.20;39.30;;;;;;6043642;29;20147;-72
2022/06/22 14:39:41;;;;;;;20.48;3.05;;;35.10;36.40;;;;;;6064668;29;20120;-72
2022/06/22 14:43:11;;;;;;;28.48;3.13;;;36.80;32.90;;;;;;6084258;29;20036;-71
2022/06/22 14:46:29;;;;;;;21.90;3.13;;;38.00;31.20;;;;;;6075627;29;20859;-71
2022/06/22 14:49:48;;;;;;;22.38;3.35;;;38.90;29.90;;;;;;6078285;29;20037;-73
2022/06/22 14:53:19;;;;;;;13.80;2.40;;;39.60;28.80;;;;;;6061434;29;20044;-74
2022/06/22 14:56:38;;;;;;;15.43;2.05;;;40.50;27.80;;;;;;6053535;29;20040;-71
2022/06/22 15:00:08;;;;;;;9.38;1.50;;;41.10;26.50;;;;;;6063963;29;20485;-74
2022/06/22 15:03:12;;;;;;;11.95;2.00;;;41.40;25.90;;;;;;6078315;29;20033;-72
2022/06/22 15:06:42;;;;;;;16.55;1.98;;;41.60;25.40;;;;;;6135029;28;20042;-71
2022/06/22 15:09:52;;;;;;;8.85;2.13;;;41.90;24.70;;;;;;6169612;28;20031;-72
2022/06/22 15:13:06;;;;;;;13.02;2.28;;;41.90;24.40;;;;;;6178682;28;20031;-71
2022/06/22 15:16:16;;;;;;;13.35;1.77;;;41.50;24.60;;;;;;6179152;28;20034;-71
2022/06/22 15:19:45;;;;;;;10.30;2.05;;;41.00;25.20;;;;;;6168400;28;20062;-70
2022/06/22 15:23:10;;;;;;;9.88;2.30;;;40.50;25.50;;;;;;6147733;28;20384;-72
2022/06/22 15:26:22;;;;;;;12.20;2.30;;;40.10;25.70;;;;;;6156279;28;20123;-73
2022/06/22 15:29:43;;;;;;;9.68;2.47;;;39.70;26.00;;;;;;6134520;28;20026;-73
2022/06/22 15:33:09;;;;;;;11.13;1.85;;;39.30;26.30;;;;;;6123074;28;20061;-71
2022/06/22 15:36:36;;;;;;;11.13;2.22;;;38.60;26.90;;;;;;6160373;28;20027;-73
2022/06/22 15:40:01;;;;;;;13.40;2.57;;;37.80;27.70;;;;;;6157032;28;20031;-72
2022/06/22 15:43:24;;;;;;;15.80;2.67;;;37.20;28.40;;;;;;6154961;28;20038;-72
2022/06/22 15:46:36;;;;;;;19.15;2.63;;;36.70;28.80;;;;;;6148812;28;20421;-75
2022/06/22 15:50:29;;;;;;;20.90;2.92;;;36.30;29.10;;;;;;6156602;28;20046;-74
2022/06/22 15:53:57;;;;;;;22.63;3.53;;;35.90;29.60;;;;;;6145093;28;20037;-73
2022/06/22 15:57:07;;;;;;;14.17;2.07;;;35.50;30.00;;;;;;6144508;28;20043;-72
2022/06/22 16:00:14;;;;;;;15.65;3.03;;;35.20;30.30;;;;;;6143245;28;20027;-73
2022/06/22 16:03:53;;;;;;;20.33;3.70;;;34.90;30.80;;;;;;6153037;28;20397;-72
2022/06/22 16:07:28;;;;;;;13.25;2.38;;;34.60;31.20;;;;;;6139864;28;20465;-72
2022/06/22 16:14:18;;;;;;;17.30;2.40;;;34.10;31.70;;;;;;6089680;29;20040;-72
2022/06/22 16:17:26;;;;;;;17.23;3.00;;;33.90;31.70;;;;;;6081503;29;20051;-72
2022/06/22 16:20:41;;;;;;;20.13;2.53;;;33.90;31.90;;;;;;6091646;29;20032;-71
2022/06/22 16:23:54;;;;;;;13.43;2.47;;;33.70;32.00;;;;;;6070253;29;20044;-71
2022/06/22 16:27:04;;;;;;;27.30;3.35;;;33.60;32.30;;;;;;6095350;29;20529;-72
2022/06/22 16:30:06;;;;;;;18.48;2.70;;;33.50;32.30;;;;;;6092512;29;20084;-79
2022/06/22 16:33:11;;;;;;;25.52;3.15;;;33.30;32.30;;;;;;6098503;29;20553;-76
2022/06/22 16:36:27;;;;;;;16.20;2.97;;;33.20;32.50;;;;;;6084892;29;20028;-71
2022/06/22 16:39:56;;;;;;;24.33;2.83;;;33.00;32.70;;;;;;6093120;29;20040;-71
2022/06/22 16:43:11;;;;;;;26.15;3.38;;;32.80;32.80;;;;;;6088242;29;20040;-72
2022/06/22 16:46:17;;;;;;;20.63;2.90;;;32.80;33.00;;;;;;6082045;29;20028;-71
2022/06/22 16:49:27;;;;;;;25.27;3.10;;;32.70;33.00;;;;;;6091662;29;20047;-71
2022/06/22 16:52:37;;;;;;;18.50;3.20;;;32.60;33.10;;;;;;6141596;29;20138;-71
2022/06/22 16:55:43;;;;;;;17.77;3.25;;;32.50;33.20;;;;;;6130893;29;20461;-71
2022/06/22 16:58:45;;;;;;;19.85;2.83;;;32.50;33.30;;;;;;6135494;29;20441;-72
2022/06/22 17:01:57;;;;;;;29.05;3.80;;;32.50;33.50;;;;;;6136134;29;20042;-73
2022/06/22 17:05:01;;;;;;;27.88;3.40;;;32.40;33.60;;;;;;6135411;29;20033;-72
2022/06/22 17:08:16;;;;;;;17.60;3.38;;;32.40;33.70;;;;;;6124930;29;20421;-71
2022/06/22 17:11:21;;;;;;;28.42;3.38;;;32.30;33.70;;;;;;6143500;29;20221;-73